createdAt,value
2017-08-23T00:02:27.523Z,12.80
2017-08-23T00:04:57.481Z,12.80
2017-08-23T00:07:27.387Z,12.70
2017-08-23T00:09:56.903Z,12.70
2017-08-23T00:12:26.391Z,12.80
2017-08-23T00:14:56.118Z,12.70
2017-08-23T00:17:27.496Z,12.60
2017-08-23T00:19:57.285Z,12.60
2017-08-23T00:22:28.956Z,12.50
2017-08-23T00:25:00.168Z,12.60
2017-08-23T00:27:29.889Z,12.60
2017-08-23T00:29:59.567Z,12.60
2017-08-23T00:32:29.213Z,12.60
2017-08-23T00:34:58.937Z,12.60
2017-08-23T00:37:28.839Z,12.50
2017-08-23T00:39:58.669Z,12.50
2017-08-23T00:42:28.004Z,12.50
2017-08-23T00:44:57.786Z,12.50
2017-08-23T00:47:27.133Z,12.40
2017-08-23T00:49:56.266Z,12.50
2017-08-23T00:52:25.824Z,12.50
2017-08-23T00:54:55.506Z,12.40
2017-08-23T00:57:25.187Z,12.40
2017-08-23T00:59:54.955Z,12.40
2017-08-23T01:02:25.227Z,12.30
2017-08-23T01:04:54.919Z,12.30
2017-08-23T01:07:24.664Z,12.30
2017-08-23T01:09:54.322Z,12.30
2017-08-23T01:12:24.086Z,12.30
2017-08-23T01:14:54.579Z,12.30
2017-08-23T01:17:24.277Z,12.30
2017-08-23T01:19:54.083Z,12.30
2017-08-23T01:22:23.637Z,12.30
2017-08-23T01:24:53.301Z,12.30
2017-08-23T01:27:23.011Z,12.20
2017-08-23T01:29:52.682Z,12.20
2017-08-23T01:32:22.462Z,12.20
2017-08-23T01:34:52.027Z,12.30
2017-08-23T01:37:21.725Z,12.30
2017-08-23T01:39:51.416Z,12.20
2017-08-23T01:42:21.303Z,12.30
2017-08-23T01:44:51.012Z,12.20
2017-08-23T01:47:20.839Z,12.20
2017-08-23T01:49:50.555Z,12.20
2017-08-23T01:52:20.228Z,12.10
2017-08-23T01:54:49.933Z,12.10
2017-08-23T01:57:19.685Z,12.10
2017-08-23T01:59:49.458Z,12.10
2017-08-23T02:02:19.109Z,12.10
2017-08-23T02:04:48.590Z,12.10
2017-08-23T02:07:18.210Z,12.00
2017-08-23T02:09:47.689Z,12.00
2017-08-23T02:12:17.428Z,12.00
2017-08-23T02:14:47.224Z,12.00
2017-08-23T02:17:17.012Z,12.00
2017-08-23T02:19:47.614Z,11.90
2017-08-23T02:22:17.420Z,11.90
2017-08-23T02:24:47.788Z,11.90
2017-08-23T02:27:17.453Z,11.90
2017-08-23T02:29:47.844Z,11.70
2017-08-23T02:32:17.626Z,11.70
2017-08-23T02:34:47.307Z,11.80
2017-08-23T02:37:16.982Z,11.80
2017-08-23T02:39:46.742Z,11.80
2017-08-23T02:42:16.454Z,11.80
2017-08-23T02:44:46.477Z,11.70
2017-08-23T02:47:16.123Z,11.60
2017-08-23T02:49:45.800Z,11.60
2017-08-23T02:52:15.479Z,11.60
2017-08-23T02:54:45.142Z,11.70
2017-08-23T02:57:14.863Z,11.70
2017-08-23T02:59:44.542Z,11.70
2017-08-23T03:02:14.196Z,11.70
2017-08-23T03:04:43.901Z,11.70
2017-08-23T03:07:13.548Z,11.60
2017-08-23T03:09:43.041Z,11.60
2017-08-23T03:12:12.714Z,11.60
2017-08-23T03:14:42.383Z,11.60
2017-08-23T03:17:12.048Z,11.60
2017-08-23T03:19:41.714Z,11.60
2017-08-23T03:22:12.145Z,11.60
2017-08-23T03:24:41.829Z,11.60
2017-08-23T03:27:11.497Z,11.70
2017-08-23T03:29:41.172Z,11.70
2017-08-23T03:32:10.860Z,11.70
2017-08-23T03:34:40.530Z,11.70
2017-08-23T03:37:10.212Z,11.80
2017-08-23T03:39:39.880Z,11.80
2017-08-23T03:42:09.546Z,11.80
2017-08-23T03:44:39.201Z,11.80
2017-08-23T03:47:08.878Z,11.90
2017-08-23T03:49:38.543Z,11.90
2017-08-23T03:52:08.227Z,11.90
2017-08-23T03:54:37.895Z,11.90
2017-08-23T03:57:07.565Z,11.90
2017-08-23T03:59:37.222Z,11.90
2017-08-23T04:02:06.934Z,11.80
2017-08-23T04:04:36.607Z,11.80
2017-08-23T04:07:06.307Z,12.30
2017-08-23T04:09:35.980Z,12.20
2017-08-23T04:12:05.659Z,12.10
2017-08-23T04:14:35.316Z,12.00
2017-08-23T04:17:05.005Z,11.90
2017-08-23T04:19:34.525Z,11.90
2017-08-23T04:22:04.189Z,11.90
2017-08-23T04:24:33.865Z,11.90
2017-08-23T04:27:03.542Z,12.00
2017-08-23T04:29:33.210Z,12.00
2017-08-23T04:32:02.895Z,12.00
2017-08-23T04:34:32.557Z,12.00
2017-08-23T04:37:02.241Z,12.00
2017-08-23T04:39:31.908Z,12.10
2017-08-23T04:42:01.666Z,12.10
2017-08-23T04:44:31.381Z,12.10
2017-08-23T04:47:01.086Z,12.10
2017-08-23T04:49:30.786Z,12.10
2017-08-23T04:52:00.523Z,12.10
2017-08-23T04:54:30.173Z,12.10
2017-08-23T04:56:59.855Z,12.10
2017-08-23T04:59:29.537Z,12.20
2017-08-23T05:01:59.242Z,12.30
2017-08-23T05:04:28.927Z,12.40
2017-08-23T05:06:59.468Z,12.60
2017-08-23T05:09:29.915Z,12.70
2017-08-23T05:11:59.619Z,12.60
2017-08-23T05:14:29.282Z,12.70
2017-08-23T05:16:59.001Z,12.70
2017-08-23T05:19:28.649Z,12.60
2017-08-23T05:21:58.342Z,12.60
2017-08-23T05:24:28.021Z,12.70
2017-08-23T05:26:57.702Z,12.70
2017-08-23T05:29:27.381Z,12.80
2017-08-23T05:31:57.042Z,13.00
2017-08-23T05:34:26.730Z,13.10
2017-08-23T05:36:56.207Z,13.20
2017-08-23T05:39:25.883Z,13.30
2017-08-23T05:41:55.578Z,13.40
2017-08-23T05:44:25.339Z,13.50
2017-08-23T05:46:55.049Z,13.70
2017-08-23T05:49:24.742Z,13.80
2017-08-23T05:51:54.266Z,14.00
2017-08-23T05:54:23.943Z,14.10
2017-08-23T05:56:53.629Z,14.10
2017-08-23T05:59:23.297Z,14.20
2017-08-23T06:01:52.806Z,14.40
2017-08-23T06:04:22.486Z,14.50
2017-08-23T06:06:52.148Z,14.80
2017-08-23T06:09:22.646Z,15.10
2017-08-23T06:11:52.360Z,15.40
2017-08-23T06:14:22.077Z,15.60
2017-08-23T06:16:51.781Z,15.80
2017-08-23T06:19:21.460Z,16.00
2017-08-23T06:21:51.260Z,16.30
2017-08-23T06:24:20.929Z,16.50
2017-08-23T06:26:50.610Z,16.80
2017-08-23T06:29:20.296Z,17.00
2017-08-23T06:31:49.986Z,17.20
2017-08-23T06:34:19.653Z,17.30
2017-08-23T06:36:49.045Z,17.40
2017-08-23T06:39:18.469Z,17.40
2017-08-23T06:41:48.140Z,17.50
2017-08-23T06:44:17.570Z,17.50
2017-08-23T06:46:47.150Z,17.50
2017-08-23T06:49:16.846Z,17.30
2017-08-23T06:51:46.086Z,17.40
2017-08-23T06:54:15.503Z,17.60
2017-08-23T06:56:44.884Z,18.00
2017-08-23T06:59:14.306Z,18.30
2017-08-23T07:01:43.711Z,18.50
2017-08-23T07:04:13.110Z,18.70
2017-08-23T07:06:42.510Z,18.70
2017-08-23T07:09:11.905Z,18.80
2017-08-23T07:11:41.298Z,18.90
2017-08-23T07:14:10.702Z,19.00
2017-08-23T07:16:40.106Z,19.10
2017-08-23T07:19:09.511Z,19.20
2017-08-23T07:21:38.957Z,19.60
2017-08-23T07:24:08.362Z,19.80
2017-08-23T07:26:37.838Z,19.60
2017-08-23T07:29:07.289Z,19.60
2017-08-23T07:31:36.710Z,19.70
2017-08-23T07:34:06.111Z,19.70
2017-08-23T07:36:35.567Z,19.90
2017-08-23T07:39:04.293Z,19.90
2017-08-23T07:41:33.705Z,19.80
2017-08-23T07:44:03.099Z,19.90
2017-08-23T07:46:32.538Z,20.10
2017-08-23T07:49:01.975Z,20.00
2017-08-23T07:51:31.375Z,19.70
2017-08-23T07:54:00.899Z,19.60
2017-08-23T07:56:30.364Z,19.70
2017-08-23T07:58:59.789Z,19.90
2017-08-23T08:01:29.199Z,20.20
2017-08-23T08:03:58.598Z,20.10
2017-08-23T08:06:27.709Z,20.20
2017-08-23T08:08:57.112Z,20.40
2017-08-23T08:11:26.523Z,20.60
2017-08-23T08:13:55.927Z,20.40
2017-08-23T08:16:25.174Z,20.50
2017-08-23T08:18:54.587Z,20.50
2017-08-23T08:21:23.981Z,20.80
2017-08-23T08:23:53.415Z,20.90
2017-08-23T08:26:22.815Z,20.80
2017-08-23T08:28:52.228Z,20.70
2017-08-23T08:31:21.647Z,20.90
2017-08-23T08:33:51.159Z,21.10
2017-08-23T08:36:20.545Z,21.40
2017-08-23T08:38:49.990Z,21.90
2017-08-23T08:41:19.364Z,22.10
2017-08-23T08:43:48.773Z,22.20
2017-08-23T08:46:18.165Z,22.40
2017-08-23T08:48:47.588Z,22.30
2017-08-23T08:51:16.973Z,22.50
2017-08-23T08:53:46.381Z,22.70
2017-08-23T08:56:15.605Z,22.80
2017-08-23T08:58:45.019Z,22.70
2017-08-23T09:01:14.426Z,22.40
2017-08-23T09:03:43.842Z,22.60
2017-08-23T09:06:13.042Z,22.80
2017-08-23T09:08:43.231Z,22.10
2017-08-23T09:11:12.615Z,22.00
2017-08-23T09:13:42.021Z,22.30
2017-08-23T09:16:11.402Z,22.40
2017-08-23T09:18:40.826Z,22.60
2017-08-23T09:21:10.219Z,22.40
2017-08-23T09:23:39.614Z,22.70
2017-08-23T09:26:08.843Z,22.90
2017-08-23T09:28:38.246Z,23.00
2017-08-23T09:31:07.699Z,23.40
2017-08-23T09:33:37.084Z,23.00
2017-08-23T09:36:06.506Z,23.10
2017-08-23T09:38:35.911Z,23.00
2017-08-23T09:41:05.314Z,23.00
2017-08-23T09:43:34.733Z,23.60
2017-08-23T09:46:04.138Z,23.40
2017-08-23T09:48:33.539Z,23.40
2017-08-23T09:51:02.992Z,23.60
2017-08-23T09:53:32.188Z,24.10
2017-08-23T09:56:01.609Z,24.20
2017-08-23T09:58:30.999Z,24.60
2017-08-23T10:01:00.393Z,24.60
2017-08-23T10:03:29.785Z,24.20
2017-08-23T10:05:59.189Z,23.40
2017-08-23T10:08:28.590Z,22.90
2017-08-23T10:10:58.014Z,23.20
2017-08-23T10:13:27.413Z,23.40
2017-08-23T10:15:56.818Z,23.10
2017-08-23T10:18:26.259Z,22.70
2017-08-23T10:20:55.664Z,22.30
2017-08-23T10:23:25.756Z,22.20
2017-08-23T10:25:55.145Z,21.90
2017-08-23T10:28:24.566Z,21.70
2017-08-23T10:30:53.970Z,21.70
2017-08-23T10:33:23.393Z,21.50
2017-08-23T10:35:52.801Z,21.50
2017-08-23T10:38:22.228Z,21.60
2017-08-23T10:40:51.426Z,21.50
2017-08-23T10:43:20.847Z,21.50
2017-08-23T10:45:50.236Z,21.50
2017-08-23T10:48:19.655Z,21.30
2017-08-23T10:50:49.041Z,21.60
2017-08-23T10:53:18.486Z,22.20
2017-08-23T10:55:47.892Z,22.20
2017-08-23T10:58:17.307Z,21.90
2017-08-23T11:00:46.721Z,21.60
2017-08-23T11:03:15.941Z,21.50
2017-08-23T11:05:45.393Z,21.50
2017-08-23T11:08:14.819Z,21.30
2017-08-23T11:10:44.254Z,21.30
2017-08-23T11:13:13.466Z,21.30
2017-08-23T11:15:42.853Z,21.60
2017-08-23T11:18:12.343Z,22.80
2017-08-23T11:20:41.764Z,24.10
2017-08-23T11:23:11.149Z,25.40
2017-08-23T11:25:40.567Z,26.30
2017-08-23T11:28:09.969Z,26.60
2017-08-23T11:30:39.383Z,27.20
2017-08-23T11:33:08.775Z,27.50
2017-08-23T11:35:38.276Z,28.10
2017-08-23T11:38:07.679Z,28.50
2017-08-23T11:40:37.116Z,28.50
2017-08-23T11:43:06.499Z,28.00
2017-08-23T11:45:35.897Z,28.30
2017-08-23T11:48:05.308Z,28.10
2017-08-23T11:50:34.744Z,28.00
2017-08-23T11:53:04.177Z,27.20
2017-08-23T11:55:33.549Z,26.10
2017-08-23T11:58:02.943Z,25.10
2017-08-23T12:00:32.333Z,24.40
2017-08-23T12:03:01.749Z,24.30
2017-08-23T12:05:31.149Z,24.90
2017-08-23T12:08:00.493Z,25.20
2017-08-23T12:10:29.905Z,24.70
2017-08-23T12:12:59.301Z,24.30
2017-08-23T12:15:28.711Z,25.50
2017-08-23T12:17:58.119Z,26.10
2017-08-23T12:20:27.538Z,25.90
2017-08-23T12:22:56.933Z,25.20
2017-08-23T12:25:26.385Z,24.50
2017-08-23T12:27:55.820Z,23.80
2017-08-23T12:30:25.249Z,23.30
2017-08-23T12:32:54.628Z,22.90
2017-08-23T12:35:24.064Z,22.70
2017-08-23T12:37:53.470Z,23.30
2017-08-23T12:40:22.911Z,24.20
2017-08-23T12:42:52.312Z,26.30
2017-08-23T12:45:21.704Z,28.20
2017-08-23T12:47:50.915Z,29.10
2017-08-23T12:50:20.349Z,30.50
2017-08-23T12:52:49.760Z,31.20
2017-08-23T12:55:19.161Z,31.80
2017-08-23T12:57:48.579Z,31.10
2017-08-23T13:00:17.993Z,30.50
2017-08-23T13:02:47.203Z,30.20
2017-08-23T13:05:16.402Z,30.80
2017-08-23T13:07:45.846Z,30.90
2017-08-23T13:10:15.238Z,31.40
2017-08-23T13:12:44.641Z,31.50
2017-08-23T13:15:14.031Z,32.10
2017-08-23T13:17:43.436Z,29.90
2017-08-23T13:20:12.836Z,28.40
2017-08-23T13:22:42.325Z,26.90
2017-08-23T13:25:11.743Z,27.30
2017-08-23T13:27:41.166Z,28.20
2017-08-23T13:30:10.537Z,28.10
2017-08-23T13:32:39.967Z,27.00
2017-08-23T13:35:09.356Z,25.60
2017-08-23T13:37:38.758Z,24.60
2017-08-23T13:40:08.166Z,24.00
2017-08-23T13:42:37.429Z,23.70
2017-08-23T13:45:06.801Z,23.50
2017-08-23T13:47:36.197Z,23.20
2017-08-23T13:50:05.602Z,22.90
2017-08-23T13:52:35.010Z,23.00
2017-08-23T13:55:04.404Z,24.10
2017-08-23T13:57:34.611Z,24.30
2017-08-23T14:00:04.029Z,24.20
2017-08-23T14:02:33.214Z,23.90
2017-08-23T14:05:02.427Z,23.70
2017-08-23T14:07:31.815Z,24.10
2017-08-23T14:10:01.209Z,24.00
2017-08-23T14:12:30.644Z,23.80
2017-08-23T14:15:00.033Z,23.50
2017-08-23T14:17:29.445Z,23.40
2017-08-23T14:19:58.877Z,23.10
2017-08-23T14:22:28.264Z,23.00
2017-08-23T14:24:57.666Z,22.80
2017-08-23T14:27:27.049Z,22.60
2017-08-23T14:29:56.470Z,22.50
2017-08-23T14:32:25.863Z,22.40
2017-08-23T14:34:55.268Z,22.40
2017-08-23T14:37:24.641Z,22.30
2017-08-23T14:39:54.086Z,22.60
2017-08-23T14:42:23.515Z,22.70
2017-08-23T14:44:52.960Z,22.70
2017-08-23T14:47:22.367Z,22.50
2017-08-23T14:49:51.782Z,22.50
2017-08-23T14:52:21.165Z,22.40
2017-08-23T14:54:50.576Z,22.90
2017-08-23T14:57:20.021Z,23.70
2017-08-23T14:59:49.440Z,24.30
2017-08-23T15:02:18.829Z,24.80
2017-08-23T15:04:48.234Z,24.40
2017-08-23T15:07:17.744Z,24.00
2017-08-23T15:09:47.152Z,23.60
2017-08-23T15:12:16.521Z,23.20
2017-08-23T15:14:45.930Z,23.00
2017-08-23T15:17:15.322Z,22.80
2017-08-23T15:19:44.726Z,22.60
2017-08-23T15:22:14.123Z,22.40
2017-08-23T15:24:43.520Z,22.20
2017-08-23T15:27:12.925Z,22.10
2017-08-23T15:29:42.330Z,21.80
2017-08-23T15:32:11.755Z,21.70
2017-08-23T15:34:40.970Z,21.80
2017-08-23T15:37:10.378Z,21.90
2017-08-23T15:39:39.757Z,22.20
2017-08-23T15:42:09.157Z,22.50
2017-08-23T15:44:38.556Z,22.70
2017-08-23T15:47:07.985Z,22.80
2017-08-23T15:49:37.373Z,22.90
2017-08-23T15:52:06.789Z,22.90
2017-08-23T15:54:36.165Z,22.90
2017-08-23T15:57:05.392Z,22.80
2017-08-23T15:59:34.773Z,22.90
2017-08-23T16:02:04.185Z,22.90
2017-08-23T16:04:33.606Z,22.80
2017-08-23T16:07:03.027Z,22.70
2017-08-23T16:09:32.422Z,22.70
2017-08-23T16:12:01.828Z,22.60
2017-08-23T16:14:32.034Z,22.50
2017-08-23T16:17:01.444Z,22.50
2017-08-23T16:19:30.847Z,22.60
2017-08-23T16:22:00.245Z,22.60
2017-08-23T16:24:29.654Z,22.60
2017-08-23T16:26:59.050Z,22.60
2017-08-23T16:29:28.454Z,22.40
2017-08-23T16:31:57.876Z,22.20
2017-08-23T16:34:27.253Z,22.00
2017-08-23T16:36:56.486Z,22.00
2017-08-23T16:39:25.883Z,21.90
2017-08-23T16:41:55.255Z,21.90
2017-08-23T16:44:24.668Z,21.90
2017-08-23T16:46:54.066Z,21.80
2017-08-23T16:49:23.465Z,21.80
2017-08-23T16:51:52.879Z,21.70
2017-08-23T16:54:22.274Z,21.60
2017-08-23T16:56:51.684Z,21.60
2017-08-23T16:59:21.113Z,21.60
2017-08-23T17:01:53.421Z,21.60
2017-08-23T17:04:22.843Z,21.50
2017-08-23T17:06:52.323Z,21.50
2017-08-23T17:09:21.816Z,21.30
2017-08-23T17:11:51.004Z,21.30
2017-08-23T17:14:20.426Z,21.10
2017-08-23T17:16:49.808Z,21.10
2017-08-23T17:19:19.221Z,21.10
2017-08-23T17:21:48.611Z,21.00
2017-08-23T17:24:18.026Z,20.90
2017-08-23T17:26:47.418Z,21.00
2017-08-23T17:29:16.828Z,20.90
2017-08-23T17:31:46.228Z,20.80
2017-08-23T17:34:15.667Z,20.80
2017-08-23T17:36:45.065Z,20.60
2017-08-23T17:39:14.467Z,20.50
2017-08-23T17:41:43.898Z,20.50
2017-08-23T17:44:13.307Z,20.40
2017-08-23T17:46:42.726Z,20.30
2017-08-23T17:49:12.149Z,20.20
2017-08-23T17:51:41.562Z,20.10
2017-08-23T17:54:10.965Z,19.90
2017-08-23T17:56:40.396Z,19.80
2017-08-23T17:59:09.813Z,19.80
2017-08-23T18:01:39.294Z,19.70
2017-08-23T18:04:08.715Z,19.70
2017-08-23T18:06:38.175Z,19.70
2017-08-23T18:09:07.573Z,19.60
2017-08-23T18:11:36.981Z,19.60
2017-08-23T18:14:06.396Z,19.50
2017-08-23T18:16:35.813Z,19.40
2017-08-23T18:19:05.218Z,19.10
2017-08-23T18:21:34.708Z,19.00
2017-08-23T18:24:04.101Z,18.70
2017-08-23T18:26:33.531Z,18.60
2017-08-23T18:29:02.944Z,18.50
2017-08-23T18:31:32.357Z,18.50
2017-08-23T18:34:01.748Z,18.40
2017-08-23T18:36:31.198Z,18.30
2017-08-23T18:39:00.633Z,18.30
2017-08-23T18:41:30.119Z,18.20
2017-08-23T18:43:59.538Z,18.20
2017-08-23T18:46:28.990Z,18.10
2017-08-23T18:48:58.394Z,17.90
2017-08-23T18:51:27.811Z,17.80
2017-08-23T18:53:57.480Z,17.80
2017-08-23T18:56:26.917Z,17.80
2017-08-23T18:58:56.391Z,17.80
2017-08-23T19:01:25.818Z,17.70
2017-08-23T19:03:55.247Z,17.60
2017-08-23T19:06:24.648Z,17.50
2017-08-23T19:08:54.099Z,17.50
2017-08-23T19:11:23.570Z,17.30
2017-08-23T19:13:52.983Z,17.20
2017-08-23T19:16:22.413Z,17.20
2017-08-23T19:18:51.848Z,17.20
2017-08-23T19:21:21.530Z,17.10
2017-08-23T19:23:51.336Z,17.00
2017-08-23T19:26:20.830Z,16.90
2017-08-23T19:28:50.524Z,16.90
2017-08-23T19:31:20.178Z,16.80
2017-08-23T19:33:49.950Z,16.70
2017-08-23T19:36:19.359Z,16.60
2017-08-23T19:38:48.768Z,16.60
2017-08-23T19:41:18.447Z,16.60
2017-08-23T19:43:48.102Z,16.60
2017-08-23T19:46:17.529Z,16.60
2017-08-23T19:48:47.219Z,16.40
2017-08-23T19:51:16.900Z,16.40
2017-08-23T19:53:46.631Z,16.40
2017-08-23T19:56:16.478Z,16.30
2017-08-23T19:58:46.139Z,16.20
2017-08-23T20:01:15.812Z,16.10
2017-08-23T20:03:45.503Z,16.00
2017-08-23T20:06:15.205Z,16.10
2017-08-23T20:08:44.910Z,16.10
2017-08-23T20:11:14.599Z,16.10
2017-08-23T20:13:44.249Z,16.10
2017-08-23T20:16:13.934Z,16.10
2017-08-23T20:18:43.631Z,16.10
2017-08-23T20:21:13.321Z,16.10
2017-08-23T20:23:43.042Z,16.10
2017-08-23T20:26:12.749Z,16.00
2017-08-23T20:28:42.249Z,15.90
2017-08-23T20:31:12.033Z,15.90
2017-08-23T20:33:41.720Z,15.80
2017-08-23T20:36:11.487Z,15.80
2017-08-23T20:38:41.161Z,15.60
2017-08-23T20:41:10.851Z,15.60
2017-08-23T20:43:40.541Z,15.60
2017-08-23T20:46:10.032Z,15.50
2017-08-23T20:48:39.722Z,15.40
2017-08-23T20:51:09.431Z,15.30
2017-08-23T20:53:39.130Z,15.40
2017-08-23T20:56:08.833Z,15.40
2017-08-23T20:58:38.529Z,15.40
2017-08-23T21:01:08.224Z,15.40
2017-08-23T21:03:37.732Z,15.30
2017-08-23T21:06:07.389Z,15.30
2017-08-23T21:08:37.069Z,15.20
2017-08-23T21:11:06.752Z,15.20
2017-08-23T21:13:36.465Z,15.20
2017-08-23T21:16:06.174Z,15.20
2017-08-23T21:18:35.898Z,15.10
2017-08-23T21:21:05.582Z,15.00
2017-08-23T21:23:35.294Z,14.90
2017-08-23T21:26:04.961Z,15.00
2017-08-23T21:28:34.664Z,15.00
2017-08-23T21:31:04.351Z,15.00
2017-08-23T21:33:34.058Z,15.00
2017-08-23T21:36:03.739Z,15.00
2017-08-23T21:38:33.679Z,15.00
2017-08-23T21:41:03.381Z,15.10
2017-08-23T21:43:34.031Z,15.00
2017-08-23T21:46:03.764Z,15.00
2017-08-23T21:48:33.478Z,14.90
2017-08-23T21:51:03.177Z,14.80
2017-08-23T21:53:32.903Z,14.70
2017-08-23T21:56:02.609Z,14.60
2017-08-23T21:58:32.549Z,14.50
2017-08-23T22:01:02.238Z,14.50
2017-08-23T22:03:31.745Z,14.40
2017-08-23T22:06:01.444Z,14.50
2017-08-23T22:08:31.149Z,14.40
2017-08-23T22:11:00.538Z,14.40
2017-08-23T22:13:30.225Z,14.40
2017-08-23T22:15:59.905Z,14.40
2017-08-23T22:18:29.600Z,14.40
2017-08-23T22:20:59.307Z,14.40
2017-08-23T22:23:28.985Z,14.30
2017-08-23T22:25:58.683Z,14.40
2017-08-23T22:28:28.349Z,14.40
2017-08-23T22:30:58.060Z,14.40
2017-08-23T22:33:27.732Z,14.40
2017-08-23T22:35:57.415Z,14.30
2017-08-23T22:38:27.103Z,14.30
2017-08-23T22:40:56.832Z,14.30
2017-08-23T22:43:26.512Z,14.20
2017-08-23T22:45:56.224Z,14.20
2017-08-23T22:48:26.049Z,14.10
2017-08-23T22:50:55.722Z,14.10
2017-08-23T22:53:25.421Z,14.00
2017-08-23T22:55:55.096Z,14.00
2017-08-23T22:58:24.782Z,14.00
2017-08-23T23:00:54.461Z,13.90
2017-08-23T23:03:23.965Z,13.90
2017-08-23T23:05:53.641Z,13.90
2017-08-23T23:08:23.338Z,14.00
2017-08-23T23:10:53.014Z,14.00
2017-08-23T23:13:22.725Z,14.00
2017-08-23T23:15:52.426Z,14.00
2017-08-23T23:18:22.126Z,14.00
2017-08-23T23:20:51.818Z,14.10
2017-08-23T23:23:21.534Z,14.10
2017-08-23T23:25:51.319Z,14.10
2017-08-23T23:28:21.021Z,14.10
2017-08-23T23:30:50.699Z,14.10
2017-08-23T23:33:20.392Z,14.10
2017-08-23T23:35:50.071Z,14.00
2017-08-23T23:38:19.784Z,13.90
2017-08-23T23:40:49.438Z,13.90
2017-08-23T23:43:19.122Z,13.90
2017-08-23T23:45:48.792Z,13.90
2017-08-23T23:48:18.496Z,14.00
2017-08-23T23:50:48.161Z,13.90
2017-08-23T23:53:17.851Z,13.80
2017-08-23T23:55:47.562Z,13.70
2017-08-23T23:58:17.290Z,13.60
